Time;durP1;ratioP1;P1;durP2;ratioP2;P2;SDS_P1;SDS_P2;PMS_P1;PMS_P2;Temp;Humidity;BMP_temperature;BMP_pressure;BME280_temperature;BME280_humidity;BME280_pressure;Samples;Min_cycle;Max_cycle;Signal;HPM_P1;HPM_P2
2021/01/26 11:01:45;;;;;;;4.50;1.10;;;21.20;42.50;;;;;;5024396;28;21161;-49
2021/01/26 11:04:12;;;;;;;4.63;1.10;;;21.10;42.90;;;;;;4989141;28;20037;-53
2021/01/26 11:06:38;;;;;;;5.40;1.05;;;21.10;43.10;;;;;;5002066;28;20084;-53
2021/01/26 11:09:08;;;;;;;4.38;1.20;;;21.10;43.40;;;;;;5009193;28;20419;-51
2021/01/26 11:11:35;;;;;;;3.28;1.00;;;21.00;43.20;;;;;;5008012;28;20447;-47
2021/01/26 11:14:02;;;;;;;4.50;0.93;;;21.00;42.40;;;;;;5007096;28;20060;-46
2021/01/26 11:16:28;;;;;;;4.20;1.38;;;20.90;42.90;;;;;;5006963;28;20470;-48
2021/01/26 11:18:55;;;;;;;4.35;0.90;;;20.90;42.90;;;;;;5004448;28;20034;-52
2021/01/26 11:21:21;;;;;;;4.50;0.65;;;20.90;42.80;;;;;;5008871;28;20037;-45
2021/01/26 11:23:48;;;;;;;2.08;0.85;;;20.90;42.80;;;;;;4986194;28;20043;-46
2021/01/26 11:26:15;;;;;;;3.33;0.70;;;;;;;;;;5005687;28;20034;-54
2021/01/26 11:28:41;;;;;;;4.90;0.88;;;;;;;;;;5007833;28;20018;-55
2021/01/26 11:31:07;;;;;;;3.83;1.25;;;;;;;;;;5004126;28;20127;-47
2021/01/26 11:33:35;;;;;;;3.92;1.10;;;;;;;;;;5004108;28;20030;-47
2021/01/26 11:36:01;;;;;;;4.97;0.90;;;;;;;;;;5004709;28;20189;-46
2021/01/26 11:38:27;;;;;;;7.50;0.80;;;;;;;;;;5007585;28;20064;-48
2021/01/26 11:40:55;;;;;;;5.30;1.27;;;;;;;;;;5005831;28;20429;-52
2021/01/26 11:43:21;;;;;;;5.90;1.13;;;;;;;;;;5005855;28;20367;-45
2021/01/26 11:45:48;;;;;;;1.92;1.02;;;;;;;;;;5004655;28;20029;-47
2021/01/26 11:48:14;;;;;;;7.75;1.10;;;20.90;42.80;;;;;;5008095;28;20045;-46
2021/01/26 11:50:40;;;;;;;2.25;0.68;;;20.90;42.00;;;;;;5003451;28;20386;-45
2021/01/26 11:53:12;;;;;;;2.80;0.90;;;20.90;42.40;;;;;;5004754;28;20034;-44
2021/01/26 11:55:38;;;;;;;6.85;1.60;;;20.90;42.40;;;;;;5005157;28;20018;-44
2021/01/26 11:58:05;;;;;;;3.45;0.93;;;20.90;42.30;;;;;;5008300;28;20022;-44
2021/01/26 12:00:32;;;;;;;6.85;0.90;;;20.90;43.00;;;;;;5006726;28;20046;-44
2021/01/26 12:02:59;;;;;;;2.17;0.80;;;20.90;42.30;;;;;;5004532;28;20033;-48
2021/01/26 12:05:29;;;;;;;5.03;1.00;;;20.90;42.20;;;;;;5004210;28;20031;-48
2021/01/26 12:07:55;;;;;;;4.75;1.10;;;20.90;42.20;;;;;;5012484;28;20142;-46
2021/01/26 12:10:21;;;;;;;5.57;1.13;;;20.90;42.20;;;;;;5007986;28;20062;-53
2021/01/26 12:12:48;;;;;;;5.03;1.05;;;20.90;42.10;;;;;;4993012;28;20424;-51
2021/01/26 12:15:18;;;;;;;3.30;0.93;;;20.90;42.20;;;;;;4995275;28;20105;-53
2021/01/26 12:17:44;;;;;;;4.93;1.00;;;21.00;42.30;;;;;;4991995;28;20027;-53
2021/01/26 12:20:10;;;;;;;2.65;1.00;;;21.00;42.60;;;;;;4995143;28;20045;-47
2021/01/26 12:22:36;;;;;;;4.63;0.93;;;21.00;42.60;;;;;;4996348;28;20048;-49
2021/01/26 12:25:02;;;;;;;2.30;0.73;;;21.00;42.70;;;;;;5000753;28;20025;-47
2021/01/26 12:27:27;;;;;;;4.13;1.10;;;21.00;42.50;;;;;;5004944;28;20065;-45
2021/01/26 12:29:53;;;;;;;4.55;1.02;;;21.00;42.50;;;;;;4998691;28;20491;-47
2021/01/26 12:32:19;;;;;;;2.28;1.40;;;21.00;42.50;;;;;;5000350;28;20356;-53
2021/01/26 12:34:44;;;;;;;2.38;0.80;;;21.00;42.60;;;;;;4976345;28;20116;-55
2021/01/26 12:37:10;;;;;;;2.78;1.02;;;21.00;42.50;;;;;;4992964;28;20038;-50
2021/01/26 12:39:36;;;;;;;4.15;0.90;;;20.90;42.40;;;;;;4992075;28;20555;-47
2021/01/26 12:42:01;;;;;;;3.25;1.30;;;20.90;42.40;;;;;;4993924;28;20057;-46
2021/01/26 12:44:27;;;;;;;3.08;1.00;;;20.90;42.30;;;;;;4990710;28;20035;-48
2021/01/26 12:46:53;;;;;;;2.38;0.77;;;20.90;42.30;;;;;;4994777;28;20057;-55
2021/01/26 12:49:23;;;;;;;7.20;0.88;;;20.90;42.30;;;;;;4991486;28;20069;-52
2021/01/26 12:51:49;;;;;;;3.15;0.90;;;20.90;42.30;;;;;;4991769;28;20034;-50
2021/01/26 12:54:15;;;;;;;1.85;0.80;;;20.90;42.30;;;;;;4992208;28;20112;-48
2021/01/26 12:56:40;;;;;;;4.05;0.68;;;20.90;42.30;;;;;;4991767;28;20111;-49
2021/01/26 12:59:06;;;;;;;2.85;0.82;;;20.90;42.20;;;;;;4981591;28;20042;-47
2021/01/26 13:01:32;;;;;;;2.05;0.70;;;20.90;42.30;;;;;;4999839;28;20061;-45
2021/01/26 13:03:57;;;;;;;4.25;1.10;;;20.80;42.20;;;;;;4994015;28;20022;-47
2021/01/26 13:06:23;;;;;;;4.60;0.90;;;20.90;42.30;;;;;;5007313;28;20026;-52
2021/01/26 13:08:49;;;;;;;6.22;1.10;;;20.90;42.30;;;;;;4991536;28;20034;-48
2021/01/26 13:11:14;;;;;;;4.82;1.10;;;20.90;42.30;;;;;;5007200;28;20034;-45
2021/01/26 13:13:40;;;;;;;6.22;0.90;;;20.90;42.30;;;;;;4992150;28;20027;-47
2021/01/26 13:16:06;;;;;;;4.13;1.38;;;20.90;42.30;;;;;;4990986;28;20030;-45
2021/01/26 13:18:31;;;;;;;2.22;0.73;;;20.90;42.40;;;;;;4987747;28;20022;-48
2021/01/26 13:20:57;;;;;;;5.20;1.35;;;20.90;42.40;;;;;;4997847;28;20041;-49
2021/01/26 13:23:24;;;;;;;4.03;0.93;;;20.90;42.30;;;;;;5008191;28;20030;-49
2021/01/26 13:25:50;;;;;;;3.47;1.05;;;20.90;42.40;;;;;;4991760;28;20105;-46
2021/01/26 13:28:16;;;;;;;2.08;0.70;;;20.90;42.40;;;;;;4957328;28;20125;-49
2021/01/26 13:30:42;;;;;;;6.07;1.20;;;20.90;42.50;;;;;;5001631;28;20428;-45
2021/01/26 13:33:11;;;;;;;3.67;1.35;;;20.80;43.00;;;;;;4994091;28;20040;-49
2021/01/26 13:35:36;;;;;;;4.85;0.93;;;20.80;43.00;;;;;;4990274;28;20034;-47
2021/01/26 13:38:04;;;;;;;4.97;1.15;;;20.80;42.30;;;;;;4981998;28;20481;-46
2021/01/26 13:40:30;;;;;;;2.92;1.33;;;20.80;42.40;;;;;;4989957;28;20034;-45
2021/01/26 13:42:56;;;;;;;4.13;0.80;;;20.80;42.30;;;;;;5008297;28;20037;-49
2021/01/26 13:45:26;;;;;;;3.92;0.80;;;20.80;42.40;;;;;;5007531;28;20462;-47
2021/01/26 13:47:52;;;;;;;4.28;1.10;;;20.80;42.30;;;;;;4989758;28;20030;-44
2021/01/26 13:50:20;;;;;;;4.53;0.65;;;20.80;42.30;;;;;;5008962;28;20045;-45
2021/01/26 13:52:46;;;;;;;5.10;0.80;;;20.80;42.30;;;;;;4999953;28;20104;-54
2021/01/26 13:55:14;;;;;;;6.40;1.02;;;20.80;42.30;;;;;;5001891;28;20026;-45
2021/01/26 13:57:39;;;;;;;3.17;0.90;;;20.80;42.30;;;;;;4999843;28;20123;-51
2021/01/26 14:00:08;;;;;;;2.45;1.13;;;20.80;42.30;;;;;;4973526;28;20707;-45
2021/01/26 14:02:34;;;;;;;4.28;0.70;;;20.80;42.30;;;;;;5001004;28;20029;-47
2021/01/26 14:05:00;;;;;;;3.65;0.85;;;20.80;42.20;;;;;;4999424;28;20034;-45
2021/01/26 14:07:26;;;;;;;7.07;1.00;;;20.80;42.30;;;;;;4992030;28;20049;-46
2021/01/26 14:09:52;;;;;;;4.82;0.75;;;20.80;42.30;;;;;;4989947;28;20088;-45
2021/01/26 14:12:18;;;;;;;2.35;1.20;;;20.80;42.30;;;;;;4988677;28;20107;-44
2021/01/26 14:14:43;;;;;;;5.75;1.10;;;20.80;42.20;;;;;;4991067;28;20451;-47
2021/01/26 14:17:09;;;;;;;3.70;0.90;;;20.80;42.20;;;;;;4993618;28;20022;-46
2021/01/26 14:19:35;;;;;;;3.75;1.27;;;20.90;42.30;;;;;;5004658;28;20105;-48
2021/01/26 14:22:01;;;;;;;4.07;1.08;;;20.80;42.10;;;;;;5002088;28;20300;-48
2021/01/26 14:24:27;;;;;;;3.35;0.80;;;20.80;42.10;;;;;;5000166;28;20018;-52
2021/01/26 14:26:54;;;;;;;3.78;0.85;;;20.80;42.10;;;;;;4997175;28;20482;-45
2021/01/26 14:29:20;;;;;;;4.57;0.90;;;20.80;42.10;;;;;;4990488;28;20037;-45
2021/01/26 14:31:45;;;;;;;3.25;0.90;;;20.80;42.10;;;;;;4976473;28;20042;-54
2021/01/26 14:34:11;;;;;;;5.20;1.30;;;20.90;42.20;;;;;;4971281;28;20092;-47
2021/01/26 14:36:37;;;;;;;7.18;1.27;;;20.80;42.10;;;;;;4992061;28;20084;-45
2021/01/26 14:39:04;;;;;;;2.45;0.85;;;20.80;42.00;;;;;;4988748;28;20058;-47
2021/01/26 14:41:30;;;;;;;3.30;0.93;;;20.90;42.10;;;;;;4997517;28;20029;-49
2021/01/26 14:43:56;;;;;;;4.47;1.38;;;20.90;42.10;;;;;;4999334;28;20034;-47
2021/01/26 14:46:26;;;;;;;3.08;0.95;;;20.90;42.10;;;;;;5000447;28;20036;-45
2021/01/26 14:48:51;;;;;;;2.60;0.80;;;20.90;42.10;;;;;;4988938;28;20383;-46
2021/01/26 14:51:17;;;;;;;8.73;1.20;;;20.90;42.00;;;;;;4989301;28;20041;-46
2021/01/26 14:53:45;;;;;;;6.28;1.00;;;20.90;42.00;;;;;;4989934;28;20034;-48
2021/01/26 14:56:11;;;;;;;5.68;0.80;;;20.90;41.90;;;;;;4991815;28;20098;-47
2021/01/26 14:58:37;;;;;;;3.33;0.80;;;20.90;41.90;;;;;;4997038;28;20096;-47
2021/01/26 15:01:04;;;;;;;5.13;0.88;;;20.90;41.90;;;;;;5004554;28;20136;-47
2021/01/26 15:03:29;;;;;;;10.13;1.02;;;20.90;41.90;;;;;;4994337;28;20030;-45
2021/01/26 15:05:55;;;;;;;2.78;0.93;;;20.90;41.80;;;;;;4993359;28;20539;-45
2021/01/26 15:08:21;;;;;;;3.10;0.73;;;20.90;41.80;;;;;;4989562;28;20030;-45
2021/01/26 15:10:46;;;;;;;4.15;0.88;;;20.90;42.40;;;;;;4990397;28;20030;-54
2021/01/26 15:13:12;;;;;;;2.15;0.85;;;20.90;41.80;;;;;;4993251;28;20073;-45
2021/01/26 15:15:38;;;;;;;2.50;0.95;;;20.90;41.70;;;;;;4988533;28;20159;-48
2021/01/26 15:18:04;;;;;;;3.95;0.80;;;20.90;41.70;;;;;;5007025;28;20037;-45
2021/01/26 15:20:29;;;;;;;3.40;0.77;;;20.90;41.70;;;;;;5007475;28;20030;-46
2021/01/26 15:22:55;;;;;;;3.80;0.98;;;21.00;41.70;;;;;;4998545;28;20038;-47
2021/01/26 15:25:21;;;;;;;2.15;0.70;;;20.90;41.70;;;;;;5008075;28;20105;-49
2021/01/26 15:27:46;;;;;;;4.38;0.95;;;20.90;41.60;;;;;;4999689;28;20183;-53
2021/01/26 15:30:16;;;;;;;6.13;0.80;;;20.90;41.60;;;;;;4984915;28;20121;-46
2021/01/26 15:32:42;;;;;;;2.13;0.75;;;20.90;41.60;;;;;;4990670;28;20039;-47
2021/01/26 15:35:09;;;;;;;1.25;0.60;;;20.90;41.60;;;;;;5005000;28;20604;-45
2021/01/26 15:37:36;;;;;;;4.10;0.80;;;20.90;41.60;;;;;;5007812;28;20037;-48
2021/01/26 15:40:06;;;;;;;5.63;1.02;;;20.90;41.60;;;;;;4999385;28;20041;-45
2021/01/26 15:42:31;;;;;;;1.40;0.70;;;20.90;41.60;;;;;;5007361;28;20034;-45
2021/01/26 15:44:57;;;;;;;1.60;0.70;;;21.00;41.60;;;;;;5007005;28;20026;-46
2021/01/26 15:47:23;;;;;;;2.28;0.90;;;20.90;41.60;;;;;;4999485;28;20091;-45
2021/01/26 15:49:48;;;;;;;2.42;1.10;;;20.90;41.60;;;;;;4984966;28;20470;-54
2021/01/26 15:52:14;;;;;;;4.45;1.00;;;20.90;41.60;;;;;;5010492;28;20087;-44
2021/01/26 15:54:40;;;;;;;3.08;0.75;;;20.90;41.60;;;;;;5006432;28;20030;-45
2021/01/26 15:57:06;;;;;;;1.58;0.70;;;20.90;41.60;;;;;;4998488;28;20038;-46
2021/01/26 15:59:32;;;;;;;3.83;1.15;;;20.90;41.60;;;;;;4997921;28;20082;-44
2021/01/26 16:01:58;;;;;;;1.58;0.60;;;20.90;41.50;;;;;;4999108;28;20138;-45
2021/01/26 16:04:23;;;;;;;2.67;0.80;;;20.90;41.60;;;;;;4991240;28;20026;-47
2021/01/26 16:06:49;;;;;;;2.00;0.82;;;20.90;41.70;;;;;;4998926;28;20023;-55
2021/01/26 16:09:15;;;;;;;2.70;0.60;;;20.90;41.90;;;;;;5005853;28;20022;-44
2021/01/26 16:11:41;;;;;;;1.85;0.80;;;20.90;42.00;;;;;;5001029;28;20449;-44
2021/01/26 16:14:06;;;;;;;2.22;0.65;;;20.90;42.10;;;;;;5015335;28;20037;-45
2021/01/26 16:16:32;;;;;;;2.70;0.75;;;21.00;42.10;;;;;;5002798;28;20518;-47
2021/01/26 16:18:58;;;;;;;1.35;0.63;;;21.00;42.80;;;;;;5000455;28;20026;-45
2021/01/26 16:21:24;;;;;;;1.30;0.80;;;21.00;42.20;;;;;;5004769;28;20030;-49
2021/01/26 16:23:50;;;;;;;1.25;0.90;;;21.00;42.20;;;;;;5001796;28;20117;-54
2021/01/26 16:26:17;;;;;;;2.97;1.10;;;21.00;42.20;;;;;;4986035;28;20034;-44
2021/01/26 16:28:44;;;;;;;4.40;0.90;;;21.00;42.10;;;;;;4996092;28;20050;-49
2021/01/26 16:31:11;;;;;;;2.67;0.80;;;21.00;42.20;;;;;;4987501;28;20046;-51
2021/01/26 16:33:37;;;;;;;5.72;1.45;;;21.00;42.10;;;;;;4988798;28;20156;-45
2021/01/26 16:36:03;;;;;;;2.00;0.68;;;21.00;42.20;;;;;;4997655;28;20487;-46
2021/01/26 16:38:29;;;;;;;1.10;0.70;;;21.00;42.20;;;;;;5010087;28;20474;-44
2021/01/26 16:40:56;;;;;;;1.85;0.60;;;21.00;42.10;;;;;;4988356;28;20057;-44
2021/01/26 16:43:22;;;;;;;3.30;0.82;;;21.00;42.80;;;;;;4993280;28;20104;-44
2021/01/26 16:45:48;;;;;;;3.53;1.00;;;21.00;42.20;;;;;;4998957;28;20034;-53
2021/01/26 16:48:14;;;;;;;0.95;0.70;;;21.00;42.20;;;;;;4994269;28;20022;-44
2021/01/26 16:50:42;;;;;;;2.38;0.88;;;21.00;42.10;;;;;;4991236;28;20109;-48
2021/01/26 16:53:08;;;;;;;3.33;0.80;;;20.90;42.10;;;;;;4986300;28;20023;-44
2021/01/26 16:55:34;;;;;;;2.70;0.73;;;21.00;42.10;;;;;;4995942;28;20015;-46
2021/01/26 16:58:00;;;;;;;2.28;0.90;;;21.00;42.20;;;;;;4985694;28;20042;-44
2021/01/26 17:00:30;;;;;;;3.28;0.90;;;21.00;42.10;;;;;;4993972;28;20415;-43
2021/01/26 17:02:55;;;;;;;1.65;0.70;;;21.00;42.10;;;;;;4992269;28;20131;-47
2021/01/26 17:05:22;;;;;;;1.17;0.80;;;21.00;42.10;;;;;;4993455;28;20029;-44
2021/01/26 17:07:48;;;;;;;4.13;1.10;;;21.00;42.00;;;;;;5008827;28;20030;-54
2021/01/26 17:10:15;;;;;;;4.47;1.58;;;21.00;42.10;;;;;;5009641;28;20069;-44
2021/01/26 17:12:40;;;;;;;1.85;0.88;;;21.00;42.10;;;;;;5008490;28;20478;-45
2021/01/26 17:15:07;;;;;;;1.35;0.85;;;21.00;42.10;;;;;;4977162;28;20026;-45
2021/01/26 17:17:33;;;;;;;3.25;0.85;;;21.00;42.10;;;;;;4988947;28;20044;-47
2021/01/26 17:19:59;;;;;;;2.33;0.60;;;21.00;42.20;;;;;;4989843;28;20029;-45
2021/01/26 17:22:25;;;;;;;3.03;0.98;;;21.00;42.30;;;;;;4999331;28;20428;-52
2021/01/26 17:24:53;;;;;;;2.90;0.80;;;21.00;42.40;;;;;;4999910;28;20043;-54
2021/01/26 17:27:20;;;;;;;3.10;0.80;;;21.00;42.40;;;;;;5006802;28;20022;-48
2021/01/26 17:29:46;;;;;;;1.73;0.60;;;21.00;42.30;;;;;;4987588;28;20038;-46
2021/01/26 17:32:11;;;;;;;3.33;0.88;;;21.00;42.40;;;;;;5008919;28;20091;-45
2021/01/26 17:34:37;;;;;;;1.45;0.73;;;21.00;42.30;;;;;;4992199;28;20493;-45
2021/01/26 17:37:04;;;;;;;5.10;0.90;;;21.00;42.40;;;;;;4988731;28;20030;-46
2021/01/26 17:39:30;;;;;;;2.38;0.90;;;21.00;42.20;;;;;;4998442;28;20459;-50
2021/01/26 17:42:02;;;;;;;2.08;0.80;;;21.10;42.20;;;;;;4995049;28;20026;-48
2021/01/26 17:44:27;;;;;;;3.15;0.98;;;21.00;41.90;;;;;;5000967;28;20027;-46
2021/01/26 17:46:53;;;;;;;3.70;0.93;;;21.00;42.00;;;;;;4983484;28;20079;-45
2021/01/26 17:49:19;;;;;;;3.33;0.95;;;21.00;41.70;;;;;;4999829;28;20027;-47
2021/01/26 17:51:44;;;;;;;1.63;0.90;;;20.90;41.40;;;;;;4990622;28;20042;-52
2021/01/26 17:54:12;;;;;;;1.83;1.10;;;20.90;41.20;;;;;;5009283;28;20068;-46
2021/01/26 17:56:37;;;;;;;4.97;1.00;;;20.90;41.20;;;;;;4997710;28;20084;-53
2021/01/26 17:59:03;;;;;;;4.13;1.10;;;20.90;41.20;;;;;;4989824;28;20376;-48
2021/01/26 18:01:29;;;;;;;13.35;1.20;;;21.00;44.60;;;;;;4993991;28;20096;-46
2021/01/26 18:03:55;;;;;;;3.25;0.80;;;21.00;42.90;;;;;;5004780;28;20037;-47
2021/01/26 18:06:20;;;;;;;3.33;0.80;;;21.00;42.10;;;;;;5000235;28;20030;-45
2021/01/26 18:08:46;;;;;;;3.47;1.13;;;21.00;42.30;;;;;;5003041;28;20075;-51
2021/01/26 18:11:12;;;;;;;3.58;1.30;;;21.00;42.20;;;;;;5005101;28;20102;-46
2021/01/26 18:13:38;;;;;;;4.32;1.23;;;21.00;42.20;;;;;;4990551;28;20027;-46
2021/01/26 18:16:04;;;;;;;9.43;1.02;;;21.00;42.30;;;;;;5000053;28;20463;-48
2021/01/26 18:18:30;;;;;;;3.42;1.27;;;21.00;42.40;;;;;;5008312;28;20030;-46
2021/01/26 18:20:55;;;;;;;3.28;0.85;;;21.00;42.50;;;;;;4999625;28;20029;-46
2021/01/26 18:23:21;;;;;;;4.13;0.98;;;21.00;42.50;;;;;;4977148;28;20022;-46
2021/01/26 18:25:47;;;;;;;2.97;0.95;;;21.00;43.30;;;;;;4985115;28;20034;-49
2021/01/26 18:28:13;;;;;;;5.30;0.95;;;21.00;42.60;;;;;;4977192;28;20038;-46
2021/01/26 18:30:38;;;;;;;2.53;0.88;;;21.00;42.60;;;;;;4989241;28;20403;-46
2021/01/26 18:33:04;;;;;;;4.47;1.02;;;21.00;42.70;;;;;;4972654;28;20034;-46
2021/01/26 18:35:32;;;;;;;2.08;0.80;;;21.00;42.70;;;;;;5002802;28;20061;-45
2021/01/26 18:38:00;;;;;;;1.95;0.90;;;21.00;42.80;;;;;;4991404;28;20034;-46
2021/01/26 18:40:28;;;;;;;5.93;1.02;;;21.00;42.90;;;;;;5001557;28;20489;-46
2021/01/26 18:42:54;;;;;;;1.65;1.05;;;21.00;42.80;;;;;;4991972;28;20105;-45
2021/01/26 18:45:23;;;;;;;3.80;0.65;;;21.00;42.90;;;;;;4998259;28;20056;-49
2021/01/26 18:47:48;;;;;;;3.50;0.85;;;21.00;42.80;;;;;;4990810;28;20030;-55
2021/01/26 18:50:16;;;;;;;1.88;0.75;;;21.00;42.80;;;;;;5007389;28;20087;-45
2021/01/26 18:52:41;;;;;;;2.17;0.77;;;21.00;43.00;;;;;;4984958;28;20535;-45
2021/01/26 18:55:08;;;;;;;2.08;0.90;;;21.00;42.80;;;;;;4990378;28;20107;-46
2021/01/26 18:57:34;;;;;;;2.30;1.05;;;21.00;42.80;;;;;;5000066;28;20141;-47
2021/01/26 19:00:00;;;;;;;3.50;1.10;;;21.00;42.80;;;;;;5001617;28;20065;-51
2021/01/26 19:02:26;;;;;;;2.30;0.98;;;21.00;42.80;;;;;;5008799;28;20428;-46
2021/01/26 19:04:51;;;;;;;2.70;1.17;;;21.00;42.80;;;;;;4997528;28;20065;-55
2021/01/26 19:07:17;;;;;;;4.03;1.08;;;21.00;42.80;;;;;;4990470;28;21045;-46
2021/01/26 19:09:43;;;;;;;2.63;0.90;;;21.00;42.80;;;;;;4990072;28;20498;-45
2021/01/26 19:12:09;;;;;;;2.70;0.70;;;21.00;42.80;;;;;;4997214;28;20432;-44
2021/01/26 19:14:36;;;;;;;3.40;0.70;;;21.00;42.80;;;;;;4996965;28;20402;-48
2021/01/26 19:17:02;;;;;;;2.38;0.90;;;21.00;42.90;;;;;;5007533;28;20033;-46
2021/01/26 19:19:29;;;;;;;1.13;0.85;;;21.00;42.80;;;;;;4990615;28;20113;-44
2021/01/26 19:21:57;;;;;;;4.55;1.10;;;21.00;42.80;;;;;;4991057;28;20030;-49
2021/01/26 19:24:23;;;;;;;3.42;0.90;;;21.00;42.90;;;;;;4992551;28;20049;-58
2021/01/26 19:26:50;;;;;;;1.52;0.80;;;21.00;42.80;;;;;;4988850;28;20034;-56
2021/01/26 19:29:15;;;;;;;3.65;0.90;;;21.00;42.60;;;;;;4993595;28;20490;-48
2021/01/26 19:31:41;;;;;;;1.92;0.80;;;21.10;42.70;;;;;;4992158;28;20042;-46
2021/01/26 19:34:07;;;;;;;4.40;1.08;;;21.10;42.70;;;;;;4987384;28;20030;-45
2021/01/26 19:36:32;;;;;;;3.80;0.77;;;21.10;42.50;;;;;;4992016;28;20459;-46
2021/01/26 19:38:58;;;;;;;3.63;1.13;;;21.10;42.50;;;;;;4992461;28;20482;-50
2021/01/26 19:41:24;;;;;;;3.90;0.98;;;21.10;42.10;;;;;;4976324;28;20030;-47
2021/01/26 19:43:50;;;;;;;1.50;0.80;;;21.10;42.20;;;;;;4999311;28;20027;-56
2021/01/26 19:46:15;;;;;;;3.53;0.77;;;21.10;42.10;;;;;;4998423;28;20049;-45
2021/01/26 19:48:41;;;;;;;0.95;0.80;;;21.10;42.10;;;;;;5011118;28;20018;-47
2021/01/26 19:51:09;;;;;;;1.33;0.82;;;21.10;42.00;;;;;;5010378;28;20030;-47
2021/01/26 19:53:34;;;;;;;2.03;0.85;;;21.00;42.00;;;;;;4993640;28;20494;-50
2021/01/26 19:56:00;;;;;;;2.13;0.80;;;21.00;42.00;;;;;;4991269;28;20030;-47
2021/01/26 19:58:26;;;;;;;3.63;1.10;;;21.00;41.90;;;;;;4988696;28;20041;-46
2021/01/26 20:00:51;;;;;;;2.67;0.70;;;21.10;42.00;;;;;;4990868;28;20083;-56
2021/01/26 20:03:17;;;;;;;1.60;0.85;;;21.10;41.90;;;;;;4992431;28;20026;-46
2021/01/26 20:05:43;;;;;;;3.58;0.80;;;21.10;41.80;;;;;;5005858;28;20112;-46
2021/01/26 20:08:11;;;;;;;2.00;0.75;;;21.10;41.70;;;;;;4996388;28;20609;-46
2021/01/26 20:10:38;;;;;;;4.97;1.08;;;21.10;41.70;;;;;;4971192;28;20505;-48
2021/01/26 20:13:04;;;;;;;2.25;1.05;;;21.10;41.80;;;;;;5002713;28;20030;-45
2021/01/26 20:15:32;;;;;;;3.50;1.05;;;21.20;41.70;;;;;;5002626;28;20033;-47
2021/01/26 20:17:58;;;;;;;1.65;0.90;;;21.20;41.70;;;;;;4997206;28;20026;-44
2021/01/26 20:20:24;;;;;;;3.42;0.95;;;21.20;41.70;;;;;;4991762;28;20045;-47
2021/01/26 20:22:50;;;;;;;1.33;0.93;;;21.20;41.70;;;;;;4990686;28;20387;-53
2021/01/26 20:25:18;;;;;;;4.25;1.02;;;21.20;41.70;;;;;;5005712;28;20049;-45
2021/01/26 20:27:44;;;;;;;1.52;1.02;;;21.20;41.70;;;;;;5004371;28;20035;-46
2021/01/26 20:30:16;;;;;;;6.15;1.10;;;21.20;41.60;;;;;;5000384;28;20072;-48
2021/01/26 20:32:42;;;;;;;2.65;0.93;;;21.20;41.60;;;;;;4990821;28;20035;-46
2021/01/26 20:35:08;;;;;;;4.28;1.02;;;21.20;41.60;;;;;;4992718;28;20090;-47
2021/01/26 20:37:35;;;;;;;4.07;0.73;;;21.20;41.70;;;;;;5009408;28;20108;-46
2021/01/26 20:40:02;;;;;;;1.95;1.00;;;21.20;41.60;;;;;;5000869;28;20060;-48
2021/01/26 20:42:27;;;;;;;3.97;1.23;;;21.20;41.50;;;;;;4998512;28;20026;-49
2021/01/26 20:44:53;;;;;;;2.63;1.00;;;21.20;41.70;;;;;;4990717;28;20531;-56
2021/01/26 20:47:19;;;;;;;3.05;0.70;;;21.20;41.50;;;;;;4992688;28;20057;-49
2021/01/26 20:49:44;;;;;;;2.78;0.90;;;21.20;41.50;;;;;;5010055;28;20022;-50
2021/01/26 20:52:11;;;;;;;4.97;1.00;;;21.20;41.50;;;;;;5009588;28;20066;-46
2021/01/26 20:54:37;;;;;;;2.25;1.02;;;21.30;41.60;;;;;;5009534;28;20029;-48
2021/01/26 20:57:03;;;;;;;1.80;0.80;;;21.20;41.50;;;;;;4986524;28;20029;-46
2021/01/26 20:59:29;;;;;;;3.58;0.93;;;21.30;41.50;;;;;;4987876;28;20091;-46
2021/01/26 21:01:55;;;;;;;2.72;1.00;;;21.30;41.50;;;;;;4991742;28;20045;-48
2021/01/26 21:04:21;;;;;;;1.48;0.98;;;21.30;41.60;;;;;;5010511;28;20022;-46
2021/01/26 21:06:48;;;;;;;5.53;0.90;;;21.30;41.50;;;;;;5000295;28;20096;-45
2021/01/26 21:09:14;;;;;;;4.85;0.98;;;21.30;41.50;;;;;;4992072;28;20041;-45
2021/01/26 21:11:40;;;;;;;2.80;0.90;;;21.30;41.50;;;;;;5006153;28;20427;-47
2021/01/26 21:14:08;;;;;;;4.47;1.10;;;21.30;41.60;;;;;;5007509;28;20057;-46
2021/01/26 21:16:34;;;;;;;6.82;1.35;;;21.30;41.60;;;;;;4995414;28;20029;-48
2021/01/26 21:18:59;;;;;;;3.70;1.00;;;21.30;41.60;;;;;;5009396;28;20030;-44
2021/01/26 21:21:25;;;;;;;4.82;0.80;;;21.40;41.50;;;;;;5001338;28;20112;-46
2021/01/26 21:23:51;;;;;;;8.20;0.90;;;21.30;41.60;;;;;;5001071;28;20102;-55
2021/01/26 21:26:17;;;;;;;2.38;0.77;;;21.40;41.50;;;;;;4986335;28;20033;-45
2021/01/26 21:28:44;;;;;;;6.82;1.00;;;21.30;41.50;;;;;;4997418;28;20489;-45
2021/01/26 21:31:11;;;;;;;5.88;0.85;;;21.30;41.60;;;;;;4992808;28;20050;-44
2021/01/26 21:33:37;;;;;;;1.63;0.80;;;21.30;41.60;;;;;;5009858;28;20034;-46
2021/01/26 21:36:03;;;;;;;3.90;1.02;;;21.30;41.60;;;;;;4993039;28;20030;-48
2021/01/26 21:38:29;;;;;;;4.70;1.00;;;21.30;41.60;;;;;;4982247;28;20046;-45
2021/01/26 21:40:55;;;;;;;2.03;0.80;;;21.40;41.50;;;;;;4997991;28;20108;-57
2021/01/26 21:43:21;;;;;;;4.68;1.10;;;21.40;41.60;;;;;;5006329;28;20026;-48
2021/01/26 21:45:47;;;;;;;10.30;1.05;;;21.40;41.60;;;;;;4989542;28;20027;-47
2021/01/26 21:48:14;;;;;;;2.28;1.02;;;21.40;41.60;;;;;;4979171;28;20087;-45
2021/01/26 21:50:40;;;;;;;4.88;1.23;;;21.30;41.60;;;;;;4974719;28;20046;-51
2021/01/26 21:53:11;;;;;;;6.10;1.00;;;21.30;41.60;;;;;;4997672;28;20034;-45
2021/01/26 21:55:36;;;;;;;2.63;1.10;;;21.30;41.80;;;;;;5003258;28;20026;-45
2021/01/26 21:58:05;;;;;;;2.88;0.98;;;21.30;41.80;;;;;;4999659;28;20067;-46
2021/01/26 22:00:30;;;;;;;5.28;1.48;;;21.40;41.60;;;;;;4995261;28;20074;-47
2021/01/26 22:02:56;;;;;;;4.07;0.77;;;21.40;41.40;;;;;;5005790;28;20042;-52
2021/01/26 22:05:28;;;;;;;3.63;1.02;;;21.30;41.50;;;;;;5000271;28;20044;-45
2021/01/26 22:07:54;;;;;;;2.45;0.85;;;21.30;41.20;;;;;;4981623;28;20479;-55
2021/01/26 22:10:21;;;;;;;4.68;1.23;;;21.30;41.10;;;;;;4995845;28;20125;-45
2021/01/26 22:12:46;;;;;;;2.63;1.02;;;21.20;41.10;;;;;;4974642;28;20087;-48
2021/01/26 22:15:18;;;;;;;4.57;1.60;;;21.20;41.00;;;;;;4989216;28;20034;-47
2021/01/26 22:17:48;;;;;;;3.85;1.13;;;21.20;41.20;;;;;;4997923;28;20540;-49
2021/01/26 22:20:16;;;;;;;1.45;0.82;;;21.20;41.10;;;;;;4989615;28;20042;-53
2021/01/26 22:22:42;;;;;;;2.50;1.10;;;21.10;41.00;;;;;;5004080;28;20040;-50
2021/01/26 22:25:08;;;;;;;2.25;0.90;;;21.10;41.00;;;;;;4991244;28;20030;-51
2021/01/26 22:27:34;;;;;;;2.92;1.00;;;21.10;41.10;;;;;;4989999;28;20030;-44
2021/01/26 22:30:00;;;;;;;3.10;1.00;;;21.00;41.00;;;;;;5000664;28;20623;-45
2021/01/26 22:32:26;;;;;;;3.25;1.20;;;21.00;41.00;;;;;;4999293;28;20105;-45
2021/01/26 22:34:51;;;;;;;3.30;1.00;;;21.00;41.00;;;;;;5004289;28;20109;-47
2021/01/26 22:37:17;;;;;;;2.15;1.00;;;20.90;40.90;;;;;;5004506;28;20111;-46
2021/01/26 22:39:42;;;;;;;2.20;1.10;;;20.90;40.90;;;;;;5004144;28;20109;-46
2021/01/26 22:42:08;;;;;;;2.47;1.05;;;20.90;41.00;;;;;;4996956;28;20026;-47
2021/01/26 22:44:34;;;;;;;4.40;1.10;;;20.90;41.00;;;;;;4990144;28;20383;-49
2021/01/26 22:47:02;;;;;;;3.67;0.85;;;20.90;41.00;;;;;;4982977;28;20030;-47
2021/01/26 22:49:28;;;;;;;4.30;0.75;;;20.90;41.00;;;;;;5006227;28;20475;-47
2021/01/26 22:51:54;;;;;;;2.72;0.95;;;20.90;40.90;;;;;;4999744;28;20092;-55
2021/01/26 22:54:19;;;;;;;7.03;1.40;;;20.80;41.00;;;;;;4988940;28;20030;-45
2021/01/26 22:56:45;;;;;;;4.10;1.00;;;20.80;41.00;;;;;;4989522;28;20034;-48
2021/01/26 22:59:11;;;;;;;2.08;0.95;;;20.80;41.00;;;;;;4991062;28;20037;-47
2021/01/26 23:01:37;;;;;;;2.47;0.93;;;20.80;41.60;;;;;;4999609;28;20061;-45
2021/01/26 23:04:03;;;;;;;3.70;1.10;;;20.80;40.90;;;;;;5007774;28;20026;-49
2021/01/26 23:06:28;;;;;;;2.92;0.90;;;20.80;40.90;;;;;;5000920;28;20038;-51
2021/01/26 23:08:54;;;;;;;3.65;0.90;;;20.70;40.90;;;;;;4989350;28;20109;-53
2021/01/26 23:11:22;;;;;;;1.65;0.90;;;20.70;40.90;;;;;;5002385;28;20030;-45
2021/01/26 23:13:48;;;;;;;3.58;1.02;;;20.70;40.90;;;;;;4991106;28;20034;-47
2021/01/26 23:16:13;;;;;;;2.22;0.88;;;20.70;40.90;;;;;;4988617;28;20525;-45
2021/01/26 23:18:39;;;;;;;1.80;1.35;;;20.70;40.90;;;;;;4990547;28;20034;-48
2021/01/26 23:21:05;;;;;;;3.03;0.93;;;20.70;40.90;;;;;;4970653;28;20042;-50
2021/01/26 23:23:31;;;;;;;3.17;1.10;;;20.70;40.80;;;;;;4987563;28;20372;-48
2021/01/26 23:25:58;;;;;;;2.97;0.90;;;20.70;40.80;;;;;;4989933;28;20372;-55
2021/01/26 23:28:25;;;;;;;1.60;0.95;;;20.70;40.80;;;;;;4991975;28;20475;-48
2021/01/26 23:30:53;;;;;;;2.97;1.10;;;20.70;40.80;;;;;;4988853;28;20383;-46
2021/01/26 23:33:24;;;;;;;1.05;0.88;;;20.70;40.80;;;;;;4987401;28;20067;-47
2021/01/26 23:35:51;;;;;;;5.07;1.15;;;20.60;40.70;;;;;;4988085;28;20494;-49
2021/01/26 23:38:18;;;;;;;3.40;1.05;;;20.70;40.70;;;;;;4970143;28;20026;-50
2021/01/26 23:40:43;;;;;;;2.55;1.00;;;20.60;40.60;;;;;;4990343;28;20031;-47
2021/01/26 23:43:09;;;;;;;2.47;1.15;;;20.70;40.70;;;;;;4988712;28;20498;-50
2021/01/26 23:45:36;;;;;;;2.95;1.00;;;20.60;40.60;;;;;;4989000;28;20049;-51